Main page
METAR-TAF:

METAR-TAF

Airports :

Deauville – Normandie Airport

Deauville, France

latitude: 49-21-55N, longitude: 000-09-16E, elevation: 146 m

Current weather observation

The report was made 19 minutes ago, at 20:30 UTC
Wind 16 kt from the Northeast with gusts up to 31 kt, varying between North and East
Temperature 7°C
Humidity 76%
Pressure 1026 hPa
Visibility 10 km or more
Broken clouds at a height of 2200 ft

METAR: LFRG 282030Z AUTO 04016G31KT 010V090 9999 BKN022 07/03 Q1026

Time: 21:49 (20:49 UTC)


TAF: missing

Weather observations and forecasts of more than 4000 airports (METAR and TAF reports).

The available stations are represented by yellow and red dots on the map.

Hover mouse over dot to see the name of the station.

Then click to see weather observations and forecasts.

To change the map : click on the green buttons with a black cross to zoom in, on the green button with a dash to zoom out, or on the green arrows for adjacent maps.


METAR-TAF: